Terminal Aerodrome Forecast
Issued by NWS Louisville, KY

Home | Current Version | Previous Version | Text Only | Print | Product List | Glossary On
Versions: 1 2 3 4 5 6 7 8 9 10 11 12 13
000
FTUS43 KLMK 230522
TAFLEX
TAF
KLEX 230522Z 2306/2406 07008KT P6SM SCT250
     FM231600 15008KT P6SM SCT100 BKN250
     FM232300 17010KT P6SM SCT035 BKN100=

USA.gov is the U.S. government's official web portal to all federal, state and local government web resources and services.